Time;durP1;ratioP1;P1;durP2;ratioP2;P2;SDS_P1;SDS_P2;PMS_P1;PMS_P2;Temp;Humidity;BMP_temperature;BMP_pressure;BME280_temperature;BME280_humidity;BME280_pressure;Samples;Min_cycle;Max_cycle;Signal;HPM_P1;HPM_P2
2022/11/03 00:00:01;;;;;;;9.10;3.67;;;;;;;;;;5064169;28;20426;-81
2022/11/03 00:02:28;;;;;;;15.23;3.85;;;;;;;;;;5059286;28;20429;-82
2022/11/03 00:04:54;;;;;;;10.40;3.30;;;;;;;;;;5063715;28;20443;-82
2022/11/03 00:07:21;;;;;;;12.10;3.90;;;;;;;;;;5060220;28;20421;-82
2022/11/03 00:09:47;;;;;;;8.32;3.40;;;;;;;;;;5062407;28;20432;-82
2022/11/03 00:12:14;;;;;;;11.02;3.47;;;;;;;;;;5065603;28;20425;-82
2022/11/03 00:14:40;;;;;;;11.18;3.53;;;;;;;;;;5065149;28;20427;-82
2022/11/03 00:17:08;;;;;;;7.70;3.13;;;;;;;;;;5068399;28;20427;-82
2022/11/03 00:19:34;;;;;;;8.52;3.30;;;;;;;;;;5066420;28;20405;-81
2022/11/03 00:22:01;;;;;;;11.98;3.40;;;;;;;;;;5065733;28;20498;-82
2022/11/03 00:24:29;;;;;;;13.18;3.40;;;;;;;;;;5064632;28;20434;-81
2022/11/03 00:26:56;;;;;;;9.65;3.20;;;;;;;;;;5063237;28;20797;-81
2022/11/03 00:29:23;;;;;;;9.18;3.60;;;;;;;;;;5061457;28;20429;-81
2022/11/03 00:31:50;;;;;;;13.80;3.70;;;;;;;;;;5061179;28;20423;-82
2022/11/03 00:34:18;;;;;;;10.20;3.30;;;;;;;;;;5061865;28;20433;-82
2022/11/03 00:36:45;;;;;;;10.27;3.30;;;;;;;;;;5062032;28;20440;-81
2022/11/03 00:39:11;;;;;;;9.30;3.30;;;;;;;;;;5063709;28;20434;-81
2022/11/03 00:41:38;;;;;;;14.57;3.23;;;;;;;;;;5064725;28;20488;-82
2022/11/03 00:44:04;;;;;;;8.75;3.42;;;;;;;;;;5059951;28;20423;-81
2022/11/03 00:46:33;;;;;;;12.25;3.60;;;;;;;;;;5066042;28;20433;-81
2022/11/03 00:49:00;;;;;;;7.50;3.30;;;;;;;;;;5065845;28;20510;-81
2022/11/03 00:51:29;;;;;;;12.90;3.33;;;;;;;;;;5063784;28;20408;-81
2022/11/03 00:53:56;;;;;;;13.40;3.38;;;;;;;;;;5062093;28;20429;-82
2022/11/03 00:56:23;;;;;;;7.30;3.20;;;;;;;;;;5064036;28;20428;-82
2022/11/03 00:58:50;;;;;;;10.90;3.25;;;;;;;;;;5063224;28;20436;-81
2022/11/03 01:01:17;;;;;;;9.50;3.20;;;;;;;;;;5059139;28;20420;-82
2022/11/03 01:06:48;;;;;;;10.10;3.40;;;;;;;;;;5063252;28;20437;-82
2022/11/03 01:09:26;;;;;;;8.57;2.77;;;;;;;;;;5057163;28;20423;-82
2022/11/03 01:11:56;;;;;;;11.27;3.30;;;;;;;;;;5078313;28;20435;-82
2022/11/03 01:14:22;;;;;;;7.18;2.83;;;;;;;;;;5078779;28;20449;-82
2022/11/03 01:16:49;;;;;;;8.60;3.53;;;;;;;;;;5084842;28;20718;-82
2022/11/03 01:19:16;;;;;;;11.37;3.50;;;;;;;;;;5085170;28;20444;-82
2022/11/03 01:21:44;;;;;;;12.57;3.60;;;;;;;;;;5075535;28;20413;-81
2022/11/03 01:24:10;;;;;;;11.88;3.53;;;;;;;;;;5064442;28;20451;-80
2022/11/03 01:26:36;;;;;;;8.30;3.33;;;;;;;;;;5060435;28;20422;-81
2022/11/03 01:29:04;;;;;;;10.13;3.63;;;;;;;;;;5062500;28;20434;-81
2022/11/03 01:31:31;;;;;;;9.35;3.38;;;;;;;;;;5059772;28;20417;-82
2022/11/03 01:33:57;;;;;;;12.00;3.42;;;;;;;;;;5062504;28;21096;-81
2022/11/03 01:36:24;;;;;;;9.98;3.28;;;;;;;;;;5063620;28;20423;-81
2022/11/03 01:38:51;;;;;;;10.05;3.03;;;;;;;;;;5063190;28;20409;-81
2022/11/03 01:41:19;;;;;;;13.25;3.38;;;;;;;;;;5063629;28;20411;-81
2022/11/03 01:43:47;;;;;;;9.95;3.25;;;;;;;;;;5063095;28;20425;-82
2022/11/03 01:46:16;;;;;;;11.85;3.63;;;;;;;;;;5062611;28;20426;-81
2022/11/03 01:48:44;;;;;;;11.27;4.30;;;;;;;;;;5061039;28;20425;-81
2022/11/03 01:51:11;;;;;;;13.35;3.30;;;;;;;;;;5063350;28;20421;-82
2022/11/03 01:53:41;;;;;;;13.68;3.75;;;;;;;;;;5062215;28;20433;-81
2022/11/03 01:56:10;;;;;;;9.75;2.80;;;;;;;;;;5061441;28;20434;-81
2022/11/03 01:58:38;;;;;;;11.10;3.42;;;;;;;;;;5062602;28;20430;-81
2022/11/03 02:01:04;;;;;;;8.15;3.10;;;;;;;;;;5061380;28;20445;-81
2022/11/03 02:03:32;;;;;;;10.50;3.30;;;;;;;;;;5062513;28;20784;-81
2022/11/03 02:05:59;;;;;;;9.70;3.40;;;;;;;;;;5060622;28;20415;-81
2022/11/03 02:08:27;;;;;;;10.85;2.97;;;;;;;;;;5064706;28;20832;-81
2022/11/03 02:10:56;;;;;;;7.68;2.60;;;;;;;;;;5058709;28;20427;-82
2022/11/03 02:13:25;;;;;;;12.10;3.30;;;;;;;;;;5062785;28;20435;-81
2022/11/03 02:15:53;;;;;;;9.43;2.40;;;;;;;;;;5062541;28;20420;-81
2022/11/03 02:18:21;;;;;;;10.10;3.03;;;;;;;;;;5062547;28;20886;-81
2022/11/03 02:20:49;;;;;;;10.20;3.00;;;;;;;;;;5061804;28;20416;-82
2022/11/03 02:23:25;;;;;;;9.82;2.88;;;;;;;;;;5066982;28;20406;-82
2022/11/03 02:25:53;;;;;;;10.65;3.10;;;;;;;;;;5064270;28;20420;-81
2022/11/03 02:28:21;;;;;;;9.95;2.97;;;;;;;;;;5062532;28;20431;-81
2022/11/03 02:30:53;;;;;;;11.38;3.40;;;;;;;;;;5061303;28;20437;-82
2022/11/03 02:33:36;;;;;;;12.40;3.10;;;;;;;;;;5062555;28;20423;-81
2022/11/03 02:36:06;;;;;;;13.82;3.28;;;;;;;;;;5057087;28;20425;-81
2022/11/03 02:38:33;;;;;;;15.57;3.30;;;;;;;;;;5059616;28;20427;-82
2022/11/03 02:41:03;;;;;;;8.80;3.00;;;;;;;;;;5058288;28;20462;-81
2022/11/03 02:43:29;;;;;;;7.30;2.75;;;;;;;;;;5060392;28;20427;-81
2022/11/03 02:45:56;;;;;;;11.38;3.50;;;;;;;;;;5059473;28;20432;-82
2022/11/03 02:48:22;;;;;;;10.70;3.10;;;;;;;;;;5059046;28;20432;-81
2022/11/03 02:50:49;;;;;;;15.27;3.08;;;;;;;;;;5060469;28;20422;-80
2022/11/03 02:53:16;;;;;;;11.70;2.97;;;;;;;;;;5062027;28;20912;-82
2022/11/03 02:55:47;;;;;;;9.98;3.38;;;;;;;;;;5059374;28;20467;-81
2022/11/03 02:58:17;;;;;;;11.30;3.10;;;;;;;;;;5062824;28;20432;-82
2022/11/03 03:00:49;;;;;;;9.57;3.10;;;;;;;;;;5059986;28;20408;-82
2022/11/03 03:03:17;;;;;;;13.75;3.60;;;;;;;;;;5059269;28;20444;-82
2022/11/03 03:05:45;;;;;;;11.27;3.13;;;;;;;;;;5062249;28;20405;-81
2022/11/03 03:08:11;;;;;;;11.38;3.15;;;;;;;;;;5061108;28;20925;-81
2022/11/03 03:10:39;;;;;;;8.00;3.00;;;;;;;;;;5060007;28;20437;-81
2022/11/03 03:13:07;;;;;;;18.13;3.40;;;;;;;;;;5061931;28;20431;-81
2022/11/03 03:15:39;;;;;;;11.43;2.77;;;;;;;;;;5060125;28;20450;-82
2022/11/03 03:18:10;;;;;;;6.20;2.90;;;;;;;;;;5063216;28;20508;-82
2022/11/03 03:20:39;;;;;;;9.98;2.90;;;;;;;;;;5067582;28;20432;-82
2022/11/03 03:23:11;;;;;;;10.25;2.80;;;;;;;;;;5069660;28;20415;-82
2022/11/03 03:25:40;;;;;;;15.17;3.30;;;;;;;;;;5064291;28;20475;-82
2022/11/03 03:28:09;;;;;;;11.02;2.92;;;;;;;;;;5066470;28;20429;-82
2022/11/03 03:30:38;;;;;;;8.00;2.53;;;;;;;;;;5064460;28;20438;-82
2022/11/03 03:33:07;;;;;;;7.00;2.70;;;;;;;;;;5066474;28;20414;-80
2022/11/03 03:35:34;;;;;;;12.70;3.72;;;;;;;;;;5063497;28;20450;-82
2022/11/03 03:38:03;;;;;;;11.45;3.00;;;;;;;;;;5063701;28;20423;-82
2022/11/03 03:40:31;;;;;;;9.40;3.17;;;;;;;;;;5065315;28;20405;-81
2022/11/03 03:42:58;;;;;;;8.65;3.10;;;;;;;;;;5073216;28;20420;-81
2022/11/03 03:45:25;;;;;;;10.40;2.50;;;;;;;;;;5065941;28;20419;-81
2022/11/03 03:47:53;;;;;;;13.32;3.58;;;;;;;;;;5064186;28;20417;-81
2022/11/03 03:50:21;;;;;;;12.18;3.08;;;;;;;;;;5066559;28;20436;-82
2022/11/03 03:52:48;;;;;;;11.05;3.08;;;;;;;;;;5065792;28;20421;-82
2022/11/03 03:55:17;;;;;;;11.95;3.60;;;;;;;;;;5065714;28;20431;-82
2022/11/03 03:57:44;;;;;;;10.40;3.00;;;;;;;;;;5061405;28;20422;-82
2022/11/03 04:00:12;;;;;;;15.45;3.60;;;;;;;;;;5063171;28;20425;-81
2022/11/03 04:02:40;;;;;;;12.32;3.38;;;;;;;;;;5057600;28;20421;-81
2022/11/03 04:05:08;;;;;;;7.25;2.60;;;;;;;;;;5064861;28;20482;-82
2022/11/03 04:07:47;;;;;;;11.07;3.20;;;;;;;;;;5060607;28;20427;-82
2022/11/03 04:10:15;;;;;;;9.63;2.95;;;;;;;;;;5064181;28;20433;-82
2022/11/03 04:23:40;;;;;;;9.85;2.70;;;;;;;;;;5062477;28;20981;-80
2022/11/03 04:26:10;;;;;;;5.80;2.50;;;;;;;;;;5067870;28;20415;-81
2022/11/03 04:28:36;;;;;;;9.70;3.50;;;;;;;;;;5070793;28;20460;-82
2022/11/03 04:31:03;;;;;;;10.32;3.30;;;;;;;;;;5064432;28;20775;-81
2022/11/03 04:33:29;;;;;;;10.10;3.07;;;;;;;;;;5062135;28;20440;-80
2022/11/03 04:35:58;;;;;;;11.10;3.50;;;;;;;;;;5058127;28;20416;-80
2022/11/03 04:38:26;;;;;;;11.83;3.27;;;;;;;;;;5063348;28;20427;-80
2022/11/03 04:40:54;;;;;;;8.43;3.30;;;;;;;;;;5067547;28;20423;-80
2022/11/03 04:43:22;;;;;;;12.15;3.13;;;;;;;;;;5064346;28;20431;-80
2022/11/03 04:45:49;;;;;;;9.65;3.33;;;;;;;;;;5058382;28;20417;-80
2022/11/03 04:48:16;;;;;;;6.65;2.70;;;;;;;;;;5063915;28;20432;-80
2022/11/03 04:50:43;;;;;;;9.60;3.38;;;;;;;;;;5062682;28;20795;-81
2022/11/03 04:53:13;;;;;;;12.35;2.90;;;;;;;;;;5059723;28;20445;-82
2022/11/03 04:55:39;;;;;;;13.55;3.60;;;;;;;;;;5060072;28;20427;-81
2022/11/03 04:58:10;;;;;;;10.82;3.00;;;;;;;;;;5059937;28;20436;-80
2022/11/03 05:00:36;;;;;;;10.07;3.35;;;;;;;;;;5065426;28;20428;-81
2022/11/03 05:03:03;;;;;;;14.27;3.40;;;;;;;;;;5063176;28;20788;-81
2022/11/03 05:05:30;;;;;;;11.97;3.27;;;;;;;;;;5058786;28;20425;-82
2022/11/03 05:07:57;;;;;;;8.02;2.90;;;;;;;;;;5062433;28;20928;-82
2022/11/03 05:10:25;;;;;;;11.20;3.10;;;;;;;;;;5064708;28;20478;-82
2022/11/03 05:12:53;;;;;;;12.82;3.40;;;;;;;;;;5066021;28;20922;-82
2022/11/03 05:15:27;;;;;;;9.43;3.90;;;;;;;;;;5064024;28;20965;-82
2022/11/03 05:17:54;;;;;;;10.80;3.70;;;;;;;;;;5060648;28;20452;-82
2022/11/03 05:20:26;;;;;;;12.77;3.35;;;;;;;;;;5061372;28;20424;-82
2022/11/03 05:22:52;;;;;;;10.27;3.35;;;;;;;;;;5063000;28;20417;-82
2022/11/03 05:25:28;;;;;;;11.03;3.30;;;;;;;;;;5066351;28;20508;-82
2022/11/03 05:27:54;;;;;;;15.75;3.60;;;;;;;;;;5064904;28;20919;-82
2022/11/03 05:30:21;;;;;;;10.13;3.83;;;;;;;;;;5079433;28;21019;-82
2022/11/03 05:32:47;;;;;;;13.37;3.70;;;;;;;;;;5070893;28;20429;-82
2022/11/03 05:35:19;;;;;;;18.80;4.00;;;;;;;;;;5065081;28;20807;-81
2022/11/03 05:37:45;;;;;;;8.25;3.33;;;;;;;;;;5059916;28;20421;-81
2022/11/03 05:40:15;;;;;;;8.60;3.47;;;;;;;;;;5062470;28;20435;-81
2022/11/03 05:42:44;;;;;;;15.02;4.20;;;;;;;;;;5061542;28;20423;-81
2022/11/03 05:45:15;;;;;;;12.23;3.78;;;;;;;;;;5058224;28;20433;-81
2022/11/03 05:47:42;;;;;;;10.80;3.20;;;;;;;;;;5063499;28;20436;-82
2022/11/03 05:50:15;;;;;;;10.98;3.50;;;;;;;;;;5058252;28;20425;-81
2022/11/03 05:52:43;;;;;;;9.95;3.80;;;;;;;;;;5060993;28;20426;-81
2022/11/03 05:55:17;;;;;;;13.15;3.40;;;;;;;;;;5058677;28;20792;-81
2022/11/03 05:57:45;;;;;;;12.35;3.30;;;;;;;;;;5060231;28;20423;-81
2022/11/03 06:00:21;;;;;;;15.88;3.65;;;;;;;;;;5063690;28;20825;-83
2022/11/03 06:02:49;;;;;;;12.02;4.00;;;;;;;;;;5056853;28;20413;-81
2022/11/03 06:05:18;;;;;;;12.18;3.70;;;;;;;;;;5061090;28;20416;-82
2022/11/03 06:07:44;;;;;;;10.60;3.85;;;;;;;;;;5061882;28;20424;-81
2022/11/03 06:10:21;;;;;;;12.18;3.70;;;;;;;;;;5061706;28;20427;-82
2022/11/03 06:12:49;;;;;;;11.45;3.60;;;;;;;;;;5064308;28;20921;-82
2022/11/03 06:15:24;;;;;;;16.13;3.92;;;;;;;;;;5060420;28;20411;-81
2022/11/03 06:17:52;;;;;;;11.27;3.20;;;;;;;;;;5062615;28;20902;-82
2022/11/03 06:20:21;;;;;;;14.65;3.22;;;;;;;;;;5064121;28;20417;-82
2022/11/03 06:22:48;;;;;;;11.38;3.55;;;;;;;;;;5064875;28;20432;-82
2022/11/03 06:25:20;;;;;;;14.63;3.90;;;;;;;;;;5064159;28;20454;-83
2022/11/03 06:27:47;;;;;;;5.00;2.90;;;;;;;;;;5066218;28;20416;-82
2022/11/03 06:30:21;;;;;;;13.20;3.63;;;;;;;;;;5069403;28;20805;-82
2022/11/03 06:32:47;;;;;;;11.00;4.30;;;;;;;;;;5063612;28;20412;-83
2022/11/03 06:35:14;;;;;;;9.43;3.58;;;;;;;;;;5063029;28;21051;-82
2022/11/03 06:37:41;;;;;;;9.95;3.30;;;;;;;;;;5061308;28;20435;-81
2022/11/03 06:40:29;;;;;;;8.40;3.20;;;;;;;;;;5065160;28;20920;-81
2022/11/03 06:42:57;;;;;;;12.63;3.47;;;;;;;;;;5060016;28;20410;-81
2022/11/03 06:45:25;;;;;;;11.97;3.60;;;;;;;;;;5060782;28;20429;-82
2022/11/03 06:47:53;;;;;;;10.68;3.20;;;;;;;;;;5061617;28;20408;-82
2022/11/03 06:50:21;;;;;;;8.57;3.25;;;;;;;;;;5060314;28;20432;-81
2022/11/03 06:52:49;;;;;;;14.77;3.50;;;;;;;;;;5063397;28;20423;-81
2022/11/03 06:55:21;;;;;;;10.50;3.40;;;;;;;;;;5061473;28;22003;-81
2022/11/03 06:57:51;;;;;;;10.63;3.20;;;;;;;;;;5063523;28;20408;-82
2022/11/03 07:00:20;;;;;;;8.90;3.15;;;;;;;;;;5060420;28;20786;-82
2022/11/03 07:02:53;;;;;;;10.35;3.50;;;;;;;;;;5063474;28;20415;-81
2022/11/03 07:05:21;;;;;;;12.05;3.95;;;;;;;;;;5056735;28;20417;-81
2022/11/03 07:07:48;;;;;;;11.13;4.05;;;;;;;;;;5057623;28;20417;-83
2022/11/03 07:10:15;;;;;;;13.55;3.80;;;;;;;;;;5063140;28;20416;-82
2022/11/03 07:12:42;;;;;;;10.20;3.33;;;;;;;;;;5061460;28;20915;-83
2022/11/03 07:15:16;;;;;;;11.60;3.60;;;;;;;;;;5060439;28;20424;-82
2022/11/03 07:17:43;;;;;;;7.95;3.30;;;;;;;;;;5065032;28;20424;-81
2022/11/03 07:20:15;;;;;;;11.60;3.70;;;;;;;;;;5063741;28;20774;-82
2022/11/03 07:22:42;;;;;;;11.27;4.10;;;;;;;;;;5061947;28;20442;-80
2022/11/03 07:25:13;;;;;;;9.80;3.30;;;;;;;;;;5066731;28;20776;-81
2022/11/03 07:27:40;;;;;;;13.53;4.23;;;;;;;;;;5063723;28;20607;-82
2022/11/03 07:30:14;;;;;;;9.00;3.22;;;;;;;;;;5067375;28;20442;-83
2022/11/03 07:32:40;;;;;;;11.73;3.75;;;;;;;;;;5064308;28;20415;-82
2022/11/03 07:35:15;;;;;;;13.07;3.90;;;;;;;;;;5064332;28;20419;-82
2022/11/03 07:37:43;;;;;;;10.55;3.50;;;;;;;;;;5060817;28;20436;-80
2022/11/03 07:40:13;;;;;;;13.45;3.80;;;;;;;;;;5055389;28;20422;-80
2022/11/03 07:42:42;;;;;;;15.20;3.60;;;;;;;;;;5058679;28;20436;-82
2022/11/03 07:45:30;;;;;;;10.75;3.25;;;;;;;;;;5055470;28;20980;-81
2022/11/03 07:47:57;;;;;;;9.27;3.15;;;;;;;;;;5061081;28;20420;-80
2022/11/03 07:50:23;;;;;;;11.70;3.83;;;;;;;;;;5059586;28;20429;-82
2022/11/03 07:52:51;;;;;;;11.73;3.83;;;;;;;;;;5063916;28;20433;-81
2022/11/03 07:55:17;;;;;;;10.27;3.28;;;;;;;;;;5061926;28;20462;-81
2022/11/03 07:57:44;;;;;;;11.30;3.40;;;;;;;;;;5061008;28;20431;-80
2022/11/03 08:00:19;;;;;;;6.80;3.55;;;;;;;;;;5064503;28;20890;-81
2022/11/03 08:02:47;;;;;;;14.38;3.72;;;;;;;;;;5062314;28;20945;-80
2022/11/03 08:05:14;;;;;;;12.07;4.03;;;;;;;;;;5063311;28;20423;-81
2022/11/03 08:07:40;;;;;;;12.73;3.85;;;;;;;;;;5059426;28;20413;-82
2022/11/03 08:10:08;;;;;;;11.80;3.78;;;;;;;;;;5065718;28;20423;-81
2022/11/03 08:12:35;;;;;;;10.98;3.90;;;;;;;;;;5063951;28;20424;-81
2022/11/03 08:15:01;;;;;;;10.20;3.90;;;;;;;;;;5060813;28;20776;-80
2022/11/03 08:17:27;;;;;;;7.40;3.40;;;;;;;;;;5067316;28;20425;-80
2022/11/03 08:19:54;;;;;;;14.32;4.00;;;;;;;;;;5064281;28;20416;-81
2022/11/03 08:22:22;;;;;;;7.07;3.70;;;;;;;;;;5065823;28;20405;-80
2022/11/03 08:24:48;;;;;;;12.45;4.15;;;;;;;;;;5066134;28;20516;-80
2022/11/03 08:27:16;;;;;;;9.18;3.30;;;;;;;;;;5064719;28;20776;-82
2022/11/03 08:29:42;;;;;;;14.63;3.35;;;;;;;;;;5068117;28;20507;-82
2022/11/03 08:32:09;;;;;;;8.40;4.00;;;;;;;;;;5067996;28;20425;-81
2022/11/03 08:34:35;;;;;;;12.35;3.80;;;;;;;;;;5069061;28;20403;-82
2022/11/03 08:37:02;;;;;;;11.32;3.83;;;;;;;;;;5065581;28;20413;-82
2022/11/03 08:39:30;;;;;;;11.93;3.60;;;;;;;;;;5064099;28;20942;-80
2022/11/03 08:41:57;;;;;;;12.57;3.40;;;;;;;;;;5065142;28;20416;-82
2022/11/03 08:44:24;;;;;;;11.35;3.35;;;;;;;;;;5061040;28;20424;-81
2022/11/03 08:46:51;;;;;;;7.85;3.05;;;;;;;;;;5062861;28;20430;-82
2022/11/03 08:49:17;;;;;;;8.15;3.45;;;;;;;;;;5063388;28;20407;-80
2022/11/03 08:51:44;;;;;;;11.40;3.10;;;;;;;;;;5063068;28;20429;-83
2022/11/03 08:54:11;;;;;;;12.80;3.55;;;;;;;;;;5065724;28;20415;-83
2022/11/03 08:56:37;;;;;;;10.48;3.20;;;;;;;;;;5065446;28;20507;-80
2022/11/03 08:59:04;;;;;;;13.35;3.85;;;;;;;;;;5059352;28;20424;-80
2022/11/03 09:01:32;;;;;;;8.03;3.20;;;;;;;;;;5064021;28;20488;-80
2022/11/03 09:03:58;;;;;;;9.43;3.40;;;;;;;;;;5064065;28;20423;-81
2022/11/03 09:06:25;;;;;;;8.95;3.40;;;;;;;;;;5067515;28;20411;-81
2022/11/03 09:08:51;;;;;;;12.23;3.70;;;;;;;;;;5067016;28;20924;-81
2022/11/03 09:11:18;;;;;;;9.48;3.10;;;;;;;;;;5063163;28;20431;-81
2022/11/03 09:13:44;;;;;;;13.82;3.78;;;;;;;;;;5061729;28;20425;-82
2022/11/03 09:16:11;;;;;;;11.00;3.60;;;;;;;;;;5065324;28;20442;-81
2022/11/03 09:18:38;;;;;;;11.55;3.70;;;;;;;;;;5063809;28;20442;-82
2022/11/03 09:21:05;;;;;;;9.50;3.08;;;;;;;;;;5068644;28;20428;-80
2022/11/03 09:23:31;;;;;;;9.97;3.20;;;;;;;;;;5065348;28;20486;-82
2022/11/03 09:25:58;;;;;;;9.02;3.70;;;;;;;;;;5065405;28;20498;-80
2022/11/03 09:28:24;;;;;;;8.90;3.60;;;;;;;;;;5065291;28;20501;-81
2022/11/03 09:30:50;;;;;;;9.60;3.20;;;;;;;;;;5064156;28;20433;-80
2022/11/03 09:33:17;;;;;;;12.85;3.60;;;;;;;;;;5063221;28;20399;-81
2022/11/03 09:35:44;;;;;;;8.45;3.50;;;;;;;;;;5066855;28;20421;-81
2022/11/03 09:38:11;;;;;;;11.07;4.07;;;;;;;;;;5065134;28;20402;-82
2022/11/03 09:40:37;;;;;;;10.38;3.30;;;;;;;;;;5064929;28;20424;-81
2022/11/03 09:43:03;;;;;;;10.95;4.00;;;;;;;;;;5061991;28;20909;-81
2022/11/03 09:45:30;;;;;;;9.93;3.50;;;;;;;;;;5059599;28;20464;-81
2022/11/03 09:47:56;;;;;;;12.53;3.47;;;;;;;;;;5065203;28;20413;-80
2022/11/03 09:50:23;;;;;;;12.40;3.72;;;;;;;;;;5066919;28;20420;-82
2022/11/03 09:52:54;;;;;;;11.50;3.42;;;;;;;;;;5061914;28;20428;-81
2022/11/03 09:55:22;;;;;;;12.40;3.70;;;;;;;;;;5060666;28;20427;-80
2022/11/03 09:57:49;;;;;;;10.30;3.63;;;;;;;;;;5063244;28;21004;-81
2022/11/03 10:00:17;;;;;;;13.23;3.60;;;;;;;;;;5060970;28;20407;-80
2022/11/03 10:02:43;;;;;;;12.40;3.33;;;;;;;;;;5066089;28;20487;-80
2022/11/03 10:05:13;;;;;;;8.65;3.70;;;;;;;;;;5059033;28;20414;-81
2022/11/03 10:07:39;;;;;;;10.70;3.30;;;;;;;;;;5060943;28;20438;-81
2022/11/03 10:10:14;;;;;;;11.63;3.55;;;;;;;;;;5061837;28;20422;-82
2022/11/03 10:12:41;;;;;;;8.57;3.20;;;;;;;;;;5064090;28;20427;-79
2022/11/03 10:15:13;;;;;;;8.63;3.50;;;;;;;;;;5060440;28;20440;-81
2022/11/03 10:17:39;;;;;;;11.40;3.65;;;;;;;;;;5064701;28;20795;-81
2022/11/03 10:20:06;;;;;;;10.23;2.90;;;;;;;;;;5065104;28;20491;-81
2022/11/03 10:22:33;;;;;;;9.25;3.20;;;;;;;;;;5059787;28;20431;-81
2022/11/03 10:25:18;;;;;;;8.40;3.00;;;;;;;;;;5062714;28;20416;-81
2022/11/03 10:27:46;;;;;;;8.88;2.83;;;;;;;;;;5062234;28;20419;-82
2022/11/03 10:30:13;;;;;;;10.50;3.17;;;;;;;;;;5059761;28;20419;-81
2022/11/03 10:32:40;;;;;;;7.43;2.60;;;;;;;;;;5063311;28;20423;-81
2022/11/03 10:35:31;;;;;;;9.20;3.70;;;;;;;;;;5064948;28;20452;-81
2022/11/03 10:38:05;;;;;;;11.25;3.50;;;;;;;;;;5062947;28;20447;-82
2022/11/03 10:40:34;;;;;;;7.82;3.15;;;;;;;;;;5068236;28;20440;-82
2022/11/03 10:43:02;;;;;;;7.18;2.88;;;;;;;;;;5059950;28;20409;-82
2022/11/03 10:45:28;;;;;;;6.37;2.90;;;;;;;;;;5061029;28;20430;-80
2022/11/03 10:48:00;;;;;;;8.38;3.28;;;;;;;;;;5060472;28;20444;-81
2022/11/03 10:50:27;;;;;;;7.45;3.20;;;;;;;;;;5062458;28;20426;-80
2022/11/03 10:52:54;;;;;;;8.23;3.30;;;;;;;;;;5061901;28;20977;-80
2022/11/03 10:55:22;;;;;;;8.85;3.30;;;;;;;;;;5063534;28;20785;-80
2022/11/03 10:57:49;;;;;;;10.15;3.17;;;;;;;;;;5058549;28;20441;-80
2022/11/03 11:00:17;;;;;;;9.25;3.28;;;;;;;;;;5060779;28;20883;-81
2022/11/03 11:02:44;;;;;;;7.10;3.30;;;;;;;;;;5060245;28;20433;-79
2022/11/03 11:05:13;;;;;;;10.45;3.80;;;;;;;;;;5062985;28;20435;-81
2022/11/03 11:07:40;;;;;;;8.77;3.40;;;;;;;;;;5063499;28;20431;-81
2022/11/03 11:10:08;;;;;;;9.37;2.67;;;;;;;;;;5062618;28;20423;-81
2022/11/03 11:12:34;;;;;;;10.88;3.40;;;;;;;;;;5063796;28;20450;-82
2022/11/03 11:15:05;;;;;;;9.30;3.33;;;;;;;;;;5060439;28;20942;-81
2022/11/03 11:17:48;;;;;;;6.93;3.20;;;;;;;;;;5064146;28;20910;-81
2022/11/03 11:20:35;;;;;;;12.07;3.25;;;;;;;;;;5063046;28;20429;-80
2022/11/03 11:23:20;;;;;;;8.63;3.10;;;;;;;;;;5062868;28;20434;-81
2022/11/03 11:26:05;;;;;;;10.50;3.13;;;;;;;;;;5062727;28;20421;-80
2022/11/03 11:28:32;;;;;;;9.48;3.17;;;;;;;;;;5063883;28;20448;-81
2022/11/03 11:30:59;;;;;;;8.10;3.15;;;;;;;;;;5062742;28;20436;-82
2022/11/03 11:33:27;;;;;;;8.98;3.20;;;;;;;;;;5058801;28;20403;-81
2022/11/03 11:36:08;;;;;;;8.30;3.30;;;;;;;;;;5062109;28;20420;-81
2022/11/03 11:38:59;;;;;;;10.63;3.40;;;;;;;;;;5059576;28;20475;-81
2022/11/03 11:41:40;;;;;;;13.30;3.40;;;;;;;;;;5045396;28;20509;-81
2022/11/03 11:44:21;;;;;;;9.50;3.13;;;;;;;;;;5055498;28;20422;-83
2022/11/03 11:46:48;;;;;;;9.25;3.30;;;;;;;;;;5066265;28;20422;-82
2022/11/03 11:49:19;;;;;;;7.87;2.70;;;;;;;;;;5063448;28;20427;-80
2022/11/03 11:51:45;;;;;;;11.02;3.22;;;;;;;;;;5065997;28;20929;-80
2022/11/03 11:54:13;;;;;;;8.05;3.13;;;;;;;;;;5069426;28;20416;-80
2022/11/03 11:56:41;;;;;;;8.80;3.07;;;;;;;;;;5065062;28;20826;-81
2022/11/03 11:59:14;;;;;;;8.35;3.80;;;;;;;;;;5061695;28;20925;-81
2022/11/03 12:01:42;;;;;;;13.88;3.20;;;;;;;;;;5065169;28;20915;-80
2022/11/03 12:04:15;;;;;;;7.15;3.10;;;;;;;;;;5067080;28;20435;-82
2022/11/03 12:06:43;;;;;;;10.30;3.15;;;;;;;;;;5062753;28;20425;-80
2022/11/03 12:09:16;;;;;;;10.60;3.50;;;;;;;;;;5065377;28;20483;-81
2022/11/03 12:11:43;;;;;;;9.23;3.25;;;;;;;;;;5063762;28;20432;-81
2022/11/03 12:14:21;;;;;;;8.55;3.00;;;;;;;;;;5063209;28;20412;-83
2022/11/03 12:16:48;;;;;;;6.05;2.95;;;;;;;;;;5062442;28;20411;-82
2022/11/03 12:19:33;;;;;;;8.38;3.20;;;;;;;;;;5061447;28;20406;-82
2022/11/03 12:22:01;;;;;;;9.20;3.10;;;;;;;;;;5065963;28;20468;-82
2022/11/03 12:24:36;;;;;;;12.52;3.28;;;;;;;;;;5063776;28;20416;-82
2022/11/03 12:27:03;;;;;;;11.20;3.30;;;;;;;;;;5064951;28;20412;-82
2022/11/03 12:29:29;;;;;;;10.27;3.50;;;;;;;;;;5062896;28;20436;-82
2022/11/03 12:31:57;;;;;;;6.82;3.17;;;;;;;;;;5069166;28;20424;-82
2022/11/03 12:34:23;;;;;;;5.65;2.85;;;;;;;;;;5067603;28;20446;-81
2022/11/03 12:36:50;;;;;;;8.02;3.03;;;;;;;;;;5069169;28;20421;-82
2022/11/03 12:39:17;;;;;;;7.13;3.00;;;;;;;;;;5068742;28;20420;-81
2022/11/03 12:41:44;;;;;;;10.38;2.90;;;;;;;;;;5066795;28;20432;-82
2022/11/03 12:44:11;;;;;;;7.55;3.10;;;;;;;;;;5068424;28;20416;-82
2022/11/03 12:46:37;;;;;;;12.40;3.05;;;;;;;;;;5067891;28;20924;-84
2022/11/03 12:49:04;;;;;;;7.65;3.17;;;;;;;;;;5064258;28;20422;-80
2022/11/03 12:51:30;;;;;;;7.35;2.83;;;;;;;;;;5067132;28;20435;-83
2022/11/03 12:53:57;;;;;;;8.30;2.72;;;;;;;;;;5064746;28;20452;-81
2022/11/03 12:56:25;;;;;;;7.85;2.95;;;;;;;;;;5066922;28;20930;-80
2022/11/03 12:58:51;;;;;;;4.90;3.00;;;;;;;;;;5066303;28;20973;-82
2022/11/03 13:01:17;;;;;;;7.90;3.20;;;;;;;;;;5060317;28;20421;-81
2022/11/03 13:03:44;;;;;;;7.97;3.10;;;;;;;;;;5062723;28;20417;-81
2022/11/03 13:06:13;;;;;;;9.15;3.20;;;;;;;;;;5066165;28;20430;-83
2022/11/03 13:08:39;;;;;;;9.38;3.30;;;;;;;;;;5064358;28;20845;-80
2022/11/03 13:12:29;;;;;;;7.10;3.03;;;;;;;;;;5070580;28;20411;-81
2022/11/03 13:13:54;;;;;;;8.20;3.03;;;;;;;;;;5063544;28;20529;-81
2022/11/03 13:16:21;;;;;;;12.32;3.10;;;;;;;;;;5065857;28;20412;-81
2022/11/03 13:18:48;;;;;;;9.30;3.20;;;;;;;;;;5063040;28;20421;-81
2022/11/03 13:21:15;;;;;;;11.27;3.60;;;;;;;;;;5062446;28;20429;-81
2022/11/03 13:23:41;;;;;;;8.67;3.10;;;;;;;;;;5062126;28;20412;-81
2022/11/03 13:26:08;;;;;;;7.20;2.80;;;;;;;;;;5061420;28;20550;-81
2022/11/03 13:28:35;;;;;;;8.10;2.80;;;;;;;;;;5061686;28;20416;-81
2022/11/03 13:31:03;;;;;;;7.80;3.58;;;;;;;;;;5059957;28;20498;-82
2022/11/03 13:33:29;;;;;;;10.27;3.07;;;;;;;;;;5060397;28;20444;-81
2022/11/03 13:35:56;;;;;;;9.18;3.30;;;;;;;;;;5065552;28;20429;-82
2022/11/03 13:38:22;;;;;;;8.23;3.38;;;;;;;;;;5064927;28;20428;-82
2022/11/03 13:40:49;;;;;;;9.18;3.08;;;;;;;;;;5065260;28;20409;-82
2022/11/03 13:43:16;;;;;;;10.15;3.85;;;;;;;;;;5063540;28;20412;-81
2022/11/03 13:45:43;;;;;;;7.15;3.10;;;;;;;;;;5065126;28;20905;-82
2022/11/03 13:48:11;;;;;;;8.98;3.08;;;;;;;;;;5055473;28;20414;-82
2022/11/03 13:50:37;;;;;;;11.13;3.20;;;;;;;;;;5060676;28;20430;-80
2022/11/03 13:53:03;;;;;;;8.00;2.63;;;;;;;;;;5062777;28;20432;-81
2022/11/03 13:55:30;;;;;;;9.07;3.80;;;;;;;;;;5063578;28;20419;-83
2022/11/03 13:57:58;;;;;;;11.05;3.30;;;;;;;;;;5059215;28;20429;-81
2022/11/03 14:00:25;;;;;;;8.10;3.03;;;;;;;;;;5067622;28;20430;-81
2022/11/03 14:02:52;;;;;;;8.20;3.40;;;;;;;;;;5066623;28;20436;-80
2022/11/03 14:05:19;;;;;;;7.80;3.28;;;;;;;;;;5062976;28;20415;-81
2022/11/03 14:07:47;;;;;;;9.18;3.45;;;;;;;;;;5062307;28;20437;-80
2022/11/03 14:10:13;;;;;;;13.15;4.20;;;;;;;;;;5058777;28;20439;-82
2022/11/03 14:12:38;;;;;;;11.73;4.50;;;;;;;;;;5061395;28;20436;-81
2022/11/03 14:15:06;;;;;;;14.10;4.80;;;;;;;;;;5060084;28;20775;-81
2022/11/03 14:17:32;;;;;;;11.80;5.15;;;;;;;;;;5063634;28;20423;-81
2022/11/03 14:19:59;;;;;;;12.37;4.47;;;;;;;;;;5061539;28;20416;-80
2022/11/03 14:22:26;;;;;;;10.52;4.97;;;;;;;;;;5064058;28;20429;-82
2022/11/03 14:24:53;;;;;;;10.88;4.97;;;;;;;;;;5062134;28;20412;-80
2022/11/03 14:27:19;;;;;;;17.45;5.53;;;;;;;;;;5063619;28;20427;-81
2022/11/03 14:29:48;;;;;;;12.55;4.97;;;;;;;;;;5064602;28;20427;-81
2022/11/03 14:32:14;;;;;;;15.88;5.05;;;;;;;;;;5064987;28;20451;-81
2022/11/03 14:34:42;;;;;;;16.42;5.30;;;;;;;;;;5065145;28;20798;-80
2022/11/03 14:37:10;;;;;;;13.90;5.65;;;;;;;;;;5070144;28;21245;-82
2022/11/03 14:39:39;;;;;;;12.80;5.72;;;;;;;;;;5066014;28;20410;-82
2022/11/03 14:42:05;;;;;;;15.13;5.75;;;;;;;;;;5067863;28;20417;-81
2022/11/03 14:44:32;;;;;;;15.60;6.20;;;;;;;;;;5065285;28;20476;-82
2022/11/03 14:47:00;;;;;;;13.48;5.40;;;;;;;;;;5063662;28;20433;-82
2022/11/03 14:49:26;;;;;;;14.18;4.88;;;;;;;;;;5059539;28;21313;-80
2022/11/03 14:51:53;;;;;;;12.23;4.53;;;;;;;;;;5060029;28;20512;-80
2022/11/03 14:54:19;;;;;;;9.60;4.30;;;;;;;;;;5061478;28;20421;-81
2022/11/03 14:56:47;;;;;;;10.73;4.60;;;;;;;;;;5062875;28;20871;-80